Time;durP1;ratioP1;P1;durP2;ratioP2;P2;SDS_P1;SDS_P2;PMS_P1;PMS_P2;Temp;Humidity;BMP_temperature;BMP_pressure;BME280_temperature;BME280_humidity;BME280_pressure;Samples;Min_cycle;Max_cycle;Signal;HPM_P1;HPM_P2
2022/01/12 00:01:02;;;;;;;5.68;4.00;;;;;;;;;;4943517;28;20034;-51
2022/01/12 00:03:28;;;;;;;6.18;3.88;;;;;;;;;;4946989;28;20126;-54
2022/01/12 00:05:53;;;;;;;5.72;3.70;;;;;;;;;;4947233;28;20517;-56
2022/01/12 00:08:19;;;;;;;6.03;3.95;;;;;;;;;;4945585;28;20698;-54
2022/01/12 00:10:44;;;;;;;5.68;3.83;;;;;;;;;;4947517;28;20027;-53
2022/01/12 00:13:10;;;;;;;5.55;3.80;;;;;;;;;;4944793;28;20035;-55
2022/01/12 00:15:35;;;;;;;5.80;3.85;;;;;;;;;;4944494;28;20035;-58
2022/01/12 00:18:01;;;;;;;4.40;3.38;;;;;;;;;;4929256;28;20042;-57
2022/01/12 00:20:26;;;;;;;5.88;4.00;;;;;;;;;;4922993;28;20067;-57
2022/01/12 00:22:53;;;;;;;6.10;3.95;;;;;;;;;;4925885;29;20035;-53
2022/01/12 00:33:16;;;;;;;5.05;3.72;;;;;;;;;;4925491;29;20098;-55
2022/01/12 00:35:45;;;;;;;5.53;3.85;;;;;;;;;;4926239;28;20067;-53
2022/01/12 00:38:11;;;;;;;4.70;3.75;;;;;;;;;;4925082;29;20031;-53
2022/01/12 00:40:39;;;;;;;6.47;3.92;;;;;;;;;;4925835;29;20114;-55
2022/01/12 00:43:05;;;;;;;6.07;3.63;;;;;;;;;;4925186;29;20436;-53
2022/01/12 00:45:32;;;;;;;6.15;3.75;;;;;;;;;;4927987;29;20153;-55
2022/01/12 00:47:58;;;;;;;5.82;4.05;;;;;;;;;;4927698;29;20511;-51
2022/01/12 00:50:23;;;;;;;7.18;4.25;;;;;;;;;;4928395;29;20039;-51
2022/01/12 00:52:48;;;;;;;6.75;4.35;;;;;;;;;;4928862;29;20043;-53
2022/01/12 00:55:14;;;;;;;6.10;4.13;;;;;;;;;;4928612;29;20067;-51
2022/01/12 00:57:40;;;;;;;5.35;4.05;;;;;;;;;;4928150;29;20035;-57
2022/01/12 01:00:08;;;;;;;5.68;4.28;;;;;;;;;;4929971;29;20043;-50
2022/01/12 01:02:33;;;;;;;7.22;4.28;;;;;;;;;;4930598;29;20074;-51
2022/01/12 01:05:00;;;;;;;6.55;4.47;;;;;;;;;;4927893;29;20473;-55
2022/01/12 01:07:26;;;;;;;8.90;4.95;;;;;;;;;;4928147;28;20353;-53
2022/01/12 01:10:02;;;;;;;7.32;4.55;;;;;;;;;;4928266;29;20020;-53
2022/01/12 01:12:27;;;;;;;6.65;4.43;;;;;;;;;;4929594;29;20031;-51
2022/01/12 01:15:06;;;;;;;7.00;4.43;;;;;;;;;;4927413;29;20036;-51
2022/01/12 01:25:47;;;;;;;8.63;4.72;;;;;;;;;;4767526;29;20565;-52
2022/01/12 01:28:14;;;;;;;9.85;4.55;;;;;;;;;;4695101;30;20113;-54
2022/01/12 01:30:42;;;;;;;7.85;4.50;;;;;;;;;;4624627;30;20486;-54
2022/01/12 01:35:37;;;;;;;6.65;4.10;;;;;;;;;;5158077;27;20177;-54
2022/01/12 01:38:04;;;;;;;6.53;4.53;;;;;;;;;;5146520;27;20038;-51
2022/01/12 01:40:32;;;;;;;7.43;4.30;;;;;;;;;;5162214;27;20431;-52
2022/01/12 01:53:37;;;;;;;8.02;4.15;;;;;;;;;;5045131;28;20833;-51
2022/01/12 01:56:03;;;;;;;6.55;3.78;;;;;;;;;;5047805;28;20061;-50
2022/01/12 01:58:28;;;;;;;6.90;3.50;;;;;;;;;;5042696;28;20043;-51
2022/01/12 02:00:54;;;;;;;7.07;4.00;;;;;;;;;;5047390;28;20070;-54
2022/01/12 02:03:19;;;;;;;6.65;3.60;;;;;;;;;;5045304;28;20036;-55
2022/01/12 02:05:47;;;;;;;6.07;3.65;;;;;;;;;;5050398;28;20025;-56
2022/01/12 02:08:13;;;;;;;7.88;3.80;;;;;;;;;;5043526;28;20033;-55
2022/01/12 02:10:38;;;;;;;7.68;4.40;;;;;;;;;;5048635;28;20396;-56
2022/01/12 02:13:04;;;;;;;6.47;4.13;;;;;;;;;;5045881;28;20044;-57
2022/01/12 02:15:29;;;;;;;6.97;3.70;;;;;;;;;;5055963;28;20123;-57
2022/01/12 02:40:21;;;;;;;5.60;3.35;;;;;;;;;;5065448;28;20093;-52
2022/01/12 02:42:56;;;;;;;5.70;3.50;;;;;;;;;;5068434;28;20033;-53
2022/01/12 02:51:12;;;;;;;4.90;3.45;;;;;;;;;;5026923;28;20044;-54
2022/01/12 02:53:41;;;;;;;4.47;2.90;;;;;;;;;;5027222;28;20033;-51
2022/01/12 02:56:12;;;;;;;4.07;2.95;;;;;;;;;;5026686;28;20029;-55
2022/01/12 02:58:39;;;;;;;6.85;3.25;;;;;;;;;;5027441;28;20117;-55
2022/01/12 03:03:52;;;;;;;5.20;3.28;;;;;;;;;;5027827;28;20037;-51
2022/01/12 03:06:21;;;;;;;7.78;3.70;;;;;;;;;;5029736;28;20029;-51
2022/01/12 03:08:48;;;;;;;5.95;3.85;;;;;;;;;;5026549;28;20029;-56
2022/01/12 03:11:16;;;;;;;6.15;3.33;;;;;;;;;;5028230;28;20033;-55
2022/01/12 03:13:45;;;;;;;4.93;3.28;;;;;;;;;;5028516;28;20036;-55
2022/01/12 03:16:15;;;;;;;6.13;3.28;;;;;;;;;;5027846;28;20040;-54
2022/01/12 03:18:42;;;;;;;6.50;3.58;;;;;;;;;;5027389;28;20061;-54
2022/01/12 03:21:08;;;;;;;6.57;3.50;;;;;;;;;;5028643;28;20041;-55
2022/01/12 03:23:34;;;;;;;6.57;3.60;;;;;;;;;;5027084;28;20025;-51
2022/01/12 03:25:59;;;;;;;8.05;3.53;;;;;;;;;;5026530;28;20024;-55
2022/01/12 03:28:25;;;;;;;4.50;3.40;;;;;;;;;;5028264;28;20034;-52
2022/01/12 03:30:58;;;;;;;5.07;3.35;;;;;;;;;;5028096;28;20024;-54
2022/01/12 03:36:23;;;;;;;5.63;3.60;;;;;;;;;;5024242;28;20112;-55
2022/01/12 03:38:46;;;;;;;5.25;3.22;;;;;;;;;;5025384;28;20026;-53
2022/01/12 03:41:12;;;;;;;5.50;3.65;;;;;;;;;;5025734;28;20363;-52
2022/01/12 03:43:37;;;;;;;7.50;3.78;;;;;;;;;;5026154;28;20170;-52
2022/01/12 03:46:03;;;;;;;6.35;3.83;;;;;;;;;;5023963;28;20029;-57
2022/01/12 03:48:29;;;;;;;5.53;3.42;;;;;;;;;;5026763;28;20039;-55
2022/01/12 03:50:56;;;;;;;5.25;3.17;;;;;;;;;;5023649;28;20026;-59
2022/01/12 03:53:22;;;;;;;5.55;3.28;;;;;;;;;;5024637;28;20025;-55
2022/01/12 03:55:47;;;;;;;6.75;3.80;;;;;;;;;;5023828;28;20120;-56
2022/01/12 03:58:13;;;;;;;5.63;3.65;;;;;;;;;;5024246;28;20083;-56
2022/01/12 04:00:38;;;;;;;5.60;3.10;;;;;;;;;;5023384;28;20055;-55
2022/01/12 04:03:08;;;;;;;5.25;3.45;;;;;;;;;;5024805;28;20023;-57
2022/01/12 04:08:19;;;;;;;5.88;3.38;;;;;;;;;;5023201;28;20061;-56
2022/01/12 04:11:00;;;;;;;6.90;3.60;;;;;;;;;;5022413;28;20027;-55
2022/01/12 04:13:28;;;;;;;5.78;3.38;;;;;;;;;;5022663;28;20037;-57
2022/01/12 04:16:01;;;;;;;4.50;3.22;;;;;;;;;;5024197;28;20028;-56
2022/01/12 04:18:27;;;;;;;5.50;3.42;;;;;;;;;;5024901;28;20501;-55
2022/01/12 04:20:52;;;;;;;8.85;3.35;;;;;;;;;;5023442;28;20137;-56
2022/01/12 04:23:20;;;;;;;6.07;3.95;;;;;;;;;;5024417;28;20445;-58
2022/01/12 04:25:48;;;;;;;5.82;3.42;;;;;;;;;;5024084;28;20397;-58
2022/01/12 04:28:15;;;;;;;7.68;3.75;;;;;;;;;;5023129;28;20029;-58
2022/01/12 04:30:41;;;;;;;5.78;4.10;;;;;;;;;;5022105;28;20470;-58
2022/01/12 04:33:07;;;;;;;6.22;3.67;;;;;;;;;;5022089;28;20627;-59
2022/01/12 04:35:36;;;;;;;8.70;3.92;;;;;;;;;;5022149;28;20112;-56
2022/01/12 04:38:05;;;;;;;6.55;4.10;;;;;;;;;;5025792;28;20033;-56
2022/01/12 04:40:31;;;;;;;6.47;4.00;;;;;;;;;;5024526;28;20029;-58
2022/01/12 04:42:57;;;;;;;6.20;3.58;;;;;;;;;;5025092;28;20034;-59
2022/01/12 04:50:25;;;;;;;8.82;4.53;;;;;;;;;;5066468;28;20032;-58
2022/01/12 04:52:51;;;;;;;5.22;3.50;;;;;;;;;;5064878;28;20035;-56
2022/01/12 04:55:17;;;;;;;6.05;3.85;;;;;;;;;;5068818;28;20114;-54
2022/01/12 04:57:42;;;;;;;6.95;3.85;;;;;;;;;;5067575;28;20058;-58
2022/01/12 05:00:14;;;;;;;6.10;4.03;;;;;;;;;;5068812;28;20498;-59
2022/01/12 05:08:23;;;;;;;7.97;4.28;;;;;;;;;;5067066;28;20050;-56
2022/01/12 05:13:35;;;;;;;7.28;4.22;;;;;;;;;;5066375;28;20450;-54
2022/01/12 05:16:01;;;;;;;5.63;3.70;;;;;;;;;;5068786;28;20027;-56
2022/01/12 05:18:33;;;;;;;8.73;4.85;;;;;;;;;;5066022;28;20095;-57
2022/01/12 05:21:00;;;;;;;10.02;4.60;;;;;;;;;;5070315;28;20103;-59
2022/01/12 05:23:26;;;;;;;7.03;4.30;;;;;;;;;;5065611;28;20032;-57
2022/01/12 05:25:52;;;;;;;8.02;4.22;;;;;;;;;;5066010;28;20028;-58
2022/01/12 05:28:19;;;;;;;8.02;4.30;;;;;;;;;;5067917;28;20028;-59
2022/01/12 05:30:45;;;;;;;7.03;4.05;;;;;;;;;;5066109;28;20435;-57
2022/01/12 05:33:11;;;;;;;8.40;4.28;;;;;;;;;;5068685;28;20036;-57
2022/01/12 05:35:37;;;;;;;8.90;4.07;;;;;;;;;;5066347;28;20039;-57
2022/01/12 05:38:05;;;;;;;8.60;4.30;;;;;;;;;;5068247;28;20028;-55
2022/01/12 05:40:31;;;;;;;7.50;4.50;;;;;;;;;;5066907;28;20115;-57
2022/01/12 05:43:01;;;;;;;8.20;4.82;;;;;;;;;;5067946;28;20028;-58
2022/01/12 05:45:28;;;;;;;9.52;4.53;;;;;;;;;;5067745;28;20043;-58
2022/01/12 05:50:21;;;;;;;7.47;4.82;;;;;;;;;;5060922;28;20030;-52
2022/01/12 05:52:46;;;;;;;15.25;5.78;;;;;;;;;;5038712;28;20041;-57
2022/01/12 05:55:13;;;;;;;9.15;4.65;;;;;;;;;;4923293;28;20762;-57
2022/01/12 05:57:39;;;;;;;7.38;4.65;;;;;;;;;;4896627;29;20031;-59
2022/01/12 06:00:11;;;;;;;6.65;4.57;;;;;;;;;;4904384;29;20032;-55
2022/01/12 06:02:36;;;;;;;8.40;4.82;;;;;;;;;;4898932;29;21112;-58
2022/01/12 06:05:03;;;;;;;7.38;4.60;;;;;;;;;;4903561;29;20039;-57
2022/01/12 06:07:28;;;;;;;6.18;4.03;;;;;;;;;;4898768;29;20533;-55
2022/01/12 06:09:54;;;;;;;9.55;4.65;;;;;;;;;;4898915;29;20167;-55
2022/01/12 06:12:19;;;;;;;9.48;4.60;;;;;;;;;;4899848;29;20032;-56
2022/01/12 06:14:45;;;;;;;7.13;4.20;;;;;;;;;;4898591;29;20742;-55
2022/01/12 06:17:11;;;;;;;10.73;4.13;;;;;;;;;;4899596;29;20036;-53
2022/01/12 06:19:37;;;;;;;8.02;4.88;;;;;;;;;;4897631;29;20033;-52
2022/01/12 06:22:03;;;;;;;7.63;4.55;;;;;;;;;;4900536;29;20031;-51
2022/01/12 06:24:29;;;;;;;8.05;4.50;;;;;;;;;;4903490;29;20473;-55
2022/01/12 06:26:55;;;;;;;9.57;5.03;;;;;;;;;;4903555;29;20036;-52
2022/01/12 06:31:53;;;;;;;9.13;5.15;;;;;;;;;;4904134;29;20451;-58
2022/01/12 06:34:19;;;;;;;8.07;4.63;;;;;;;;;;4902886;29;20389;-53
2022/01/12 06:36:44;;;;;;;8.15;4.55;;;;;;;;;;4901915;29;20279;-57
2022/01/12 06:39:13;;;;;;;9.15;4.65;;;;;;;;;;4904130;29;20077;-58
2022/01/12 06:41:40;;;;;;;8.18;4.22;;;;;;;;;;4899677;29;20040;-54
2022/01/12 06:44:08;;;;;;;9.73;5.15;;;;;;;;;;4907363;29;20033;-57
2022/01/12 06:46:35;;;;;;;8.48;4.95;;;;;;;;;;4900671;29;20411;-57
2022/01/12 06:49:01;;;;;;;8.13;4.57;;;;;;;;;;4902941;29;20041;-57
2022/01/12 06:51:27;;;;;;;10.10;5.22;;;;;;;;;;4900014;29;20037;-58
2022/01/12 06:53:54;;;;;;;9.15;5.22;;;;;;;;;;4904810;29;20093;-56
2022/01/12 06:56:19;;;;;;;9.25;5.10;;;;;;;;;;4930469;29;20085;-54
2022/01/12 06:58:45;;;;;;;11.20;5.63;;;;;;;;;;4937677;28;20384;-58
2022/01/12 07:01:10;;;;;;;9.13;5.38;;;;;;;;;;4936364;29;20040;-56
2022/01/12 07:03:36;;;;;;;11.00;5.75;;;;;;;;;;4934098;29;20051;-55
2022/01/12 07:06:01;;;;;;;7.55;5.00;;;;;;;;;;4936662;29;20506;-56
2022/01/12 07:08:27;;;;;;;13.27;5.72;;;;;;;;;;4934636;29;20054;-58
2022/01/12 07:10:52;;;;;;;9.52;5.80;;;;;;;;;;4936363;29;20042;-58
2022/01/12 07:13:17;;;;;;;9.10;5.50;;;;;;;;;;4933693;29;20333;-56
2022/01/12 07:15:44;;;;;;;9.48;5.30;;;;;;;;;;4935031;29;20461;-54
2022/01/12 07:18:10;;;;;;;9.90;5.65;;;;;;;;;;4933281;29;20063;-58
2022/01/12 07:20:35;;;;;;;11.68;5.43;;;;;;;;;;4935804;29;20031;-56
2022/01/12 07:23:00;;;;;;;11.40;5.53;;;;;;;;;;4933199;28;20399;-56
2022/01/12 07:25:26;;;;;;;9.88;5.25;;;;;;;;;;4934025;29;20395;-54
2022/01/12 07:27:52;;;;;;;8.52;5.43;;;;;;;;;;4930081;29;20039;-56
2022/01/12 07:30:18;;;;;;;11.73;5.30;;;;;;;;;;4935466;28;20498;-55
2022/01/12 07:32:43;;;;;;;9.20;5.47;;;;;;;;;;4932345;28;20110;-58
2022/01/12 07:35:09;;;;;;;9.80;4.97;;;;;;;;;;4934097;29;20031;-56
2022/01/12 07:37:34;;;;;;;6.93;4.70;;;;;;;;;;4933405;29;20035;-59
2022/01/12 07:40:00;;;;;;;10.18;5.47;;;;;;;;;;4936507;29;20050;-57
2022/01/12 07:42:25;;;;;;;12.15;5.60;;;;;;;;;;4932714;28;20035;-56
2022/01/12 07:44:59;;;;;;;9.77;5.53;;;;;;;;;;4933733;28;20063;-54
2022/01/12 07:47:27;;;;;;;8.18;4.90;;;;;;;;;;4931856;29;20027;-55
2022/01/12 07:49:53;;;;;;;14.98;5.57;;;;;;;;;;4934075;28;20027;-57
2022/01/12 07:52:19;;;;;;;9.00;5.38;;;;;;;;;;4936319;28;20090;-56
2022/01/12 07:54:44;;;;;;;13.20;5.63;;;;;;;;;;4980638;28;20050;-57
2022/01/12 07:57:09;;;;;;;8.13;5.13;;;;;;;;;;5022858;28;20028;-58
2022/01/12 07:59:35;;;;;;;11.57;5.78;;;;;;;;;;5025876;28;20068;-57
2022/01/12 08:02:00;;;;;;;11.85;6.85;;;;;;;;;;5025321;28;20505;-57
2022/01/12 08:04:26;;;;;;;12.07;5.63;;;;;;;;;;5023232;28;20116;-55
2022/01/12 08:06:51;;;;;;;9.75;5.07;;;;;;;;;;5023931;28;20362;-58
2022/01/12 08:09:17;;;;;;;8.13;5.03;;;;;;;;;;5024236;28;20504;-59
2022/01/12 08:11:42;;;;;;;9.43;5.93;;;;;;;;;;5024429;28;20116;-57
2022/01/12 08:14:07;;;;;;;9.43;5.00;;;;;;;;;;5024513;28;20033;-58
2022/01/12 08:16:33;;;;;;;11.98;5.53;;;;;;;;;;5022140;28;21156;-56
2022/01/12 08:18:59;;;;;;;12.27;6.47;;;;;;;;;;5024382;28;20050;-57
2022/01/12 08:21:27;;;;;;;10.60;5.95;;;;;;;;;;5024117;28;20029;-57
2022/01/12 08:23:52;;;;;;;11.18;5.75;;;;;;;;;;5023505;28;20048;-55
2022/01/12 08:26:18;;;;;;;8.35;5.10;;;;;;;;;;5023134;28;20021;-55
2022/01/12 08:28:43;;;;;;;8.85;5.38;;;;;;;;;;5023455;28;20033;-56
2022/01/12 08:31:08;;;;;;;7.90;5.00;;;;;;;;;;5025717;28;20555;-56
2022/01/12 08:33:34;;;;;;;13.02;5.38;;;;;;;;;;5023394;28;20029;-58
2022/01/12 08:35:59;;;;;;;9.70;5.20;;;;;;;;;;5025608;28;20060;-57
2022/01/12 08:38:25;;;;;;;7.93;4.90;;;;;;;;;;5023680;28;20438;-57
2022/01/12 08:40:50;;;;;;;10.68;5.28;;;;;;;;;;5023584;28;20029;-57
2022/01/12 08:43:15;;;;;;;13.88;5.22;;;;;;;;;;5020667;28;20037;-56
2022/01/12 08:45:41;;;;;;;11.43;4.95;;;;;;;;;;5024973;28;20115;-58
2022/01/12 08:48:06;;;;;;;9.13;5.57;;;;;;;;;;5024825;28;20014;-57
2022/01/12 08:50:32;;;;;;;9.15;5.28;;;;;;;;;;5026548;28;20041;-57
2022/01/12 08:52:57;;;;;;;8.95;5.55;;;;;;;;;;5024477;28;20035;-58
2022/01/12 08:55:23;;;;;;;8.68;5.50;;;;;;;;;;5028990;28;20087;-59
2022/01/12 08:57:50;;;;;;;9.55;5.05;;;;;;;;;;5027866;28;20411;-55
2022/01/12 09:00:17;;;;;;;8.23;5.15;;;;;;;;;;5028921;28;20402;-57
2022/01/12 09:02:43;;;;;;;8.93;5.60;;;;;;;;;;5028339;28;20071;-58
2022/01/12 09:05:11;;;;;;;11.30;6.05;;;;;;;;;;5030754;28;20747;-56
2022/01/12 09:07:38;;;;;;;7.93;5.18;;;;;;;;;;5028101;28;20111;-54
2022/01/12 09:10:04;;;;;;;9.13;5.10;;;;;;;;;;5029423;28;20447;-57
2022/01/12 09:12:29;;;;;;;9.52;5.28;;;;;;;;;;5030688;28;20036;-54
2022/01/12 09:14:55;;;;;;;9.50;5.40;;;;;;;;;;5027656;28;20025;-56
2022/01/12 09:17:23;;;;;;;11.05;5.40;;;;;;;;;;5029776;28;20017;-52
2022/01/12 09:19:51;;;;;;;8.45;5.40;;;;;;;;;;5027525;28;20035;-57
2022/01/12 09:22:17;;;;;;;7.70;4.72;;;;;;;;;;5030567;28;20032;-56
2022/01/12 09:24:44;;;;;;;8.27;5.30;;;;;;;;;;5011246;28;20017;-58
2022/01/12 09:27:10;;;;;;;8.68;5.05;;;;;;;;;;5029270;28;20360;-60
2022/01/12 09:29:36;;;;;;;9.93;5.50;;;;;;;;;;5029430;28;20022;-59
2022/01/12 09:32:01;;;;;;;8.30;5.13;;;;;;;;;;5027907;28;20037;-56
2022/01/12 09:34:27;;;;;;;8.25;5.57;;;;;;;;;;5031379;28;20116;-58
2022/01/12 09:36:52;;;;;;;9.95;5.13;;;;;;;;;;5029363;28;20045;-58
2022/01/12 09:39:18;;;;;;;9.80;5.00;;;;;;;;;;5029465;28;20029;-57
2022/01/12 09:41:43;;;;;;;9.10;5.72;;;;;;;;;;5030458;28;20026;-57
2022/01/12 09:44:08;;;;;;;9.07;5.20;;;;;;;;;;5029848;28;20048;-57
2022/01/12 09:46:34;;;;;;;9.32;5.10;;;;;;;;;;5030105;28;20033;-58
2022/01/12 09:49:01;;;;;;;7.20;4.93;;;;;;;;;;5028687;28;20111;-53
2022/01/12 09:51:26;;;;;;;7.10;4.90;;;;;;;;;;5028549;28;20065;-57
2022/01/12 09:53:52;;;;;;;8.00;5.07;;;;;;;;;;5013694;28;20465;-57
2022/01/12 09:56:21;;;;;;;7.20;4.95;;;;;;;;;;5025956;28;20029;-57
2022/01/12 09:58:53;;;;;;;8.85;5.10;;;;;;;;;;5041650;28;20036;-60
2022/01/12 10:01:34;;;;;;;7.27;4.83;;;;;;;;;;5027168;28;20080;-58
2022/01/12 10:04:08;;;;;;;7.57;5.15;;;;;;;;;;5027661;28;20415;-59
2022/01/12 10:06:41;;;;;;;8.75;5.35;;;;;;;;;;5027088;28;20543;-60
2022/01/12 10:09:07;;;;;;;8.00;5.25;;;;;;;;;;5027395;28;20120;-59
2022/01/12 10:11:33;;;;;;;8.38;5.07;;;;;;;;;;5027356;28;20168;-58
2022/01/12 10:14:01;;;;;;;9.70;5.32;;;;;;;;;;5028664;28;20142;-60
2022/01/12 10:16:27;;;;;;;11.23;5.00;;;;;;;;;;5027024;28;20124;-59
2022/01/12 10:18:58;;;;;;;8.35;5.07;;;;;;;;;;5028366;28;21316;-58
2022/01/12 10:21:36;;;;;;;11.43;5.55;;;;;;;;;;5027317;28;20055;-59
2022/01/12 10:24:05;;;;;;;11.32;5.32;;;;;;;;;;5027358;28;20022;-58
2022/01/12 10:26:40;;;;;;;7.95;5.55;;;;;;;;;;5025891;28;20112;-55
2022/01/12 10:29:27;;;;;;;8.60;5.07;;;;;;;;;;5026819;28;20110;-58
2022/01/12 10:31:57;;;;;;;8.80;5.43;;;;;;;;;;5026401;28;20033;-53
2022/01/12 10:34:34;;;;;;;8.27;5.43;;;;;;;;;;5026702;28;20042;-58
2022/01/12 10:37:00;;;;;;;7.47;5.38;;;;;;;;;;5028179;28;20116;-56
2022/01/12 10:39:27;;;;;;;8.65;4.88;;;;;;;;;;5025442;28;20132;-55
2022/01/12 10:41:57;;;;;;;8.05;5.05;;;;;;;;;;5027832;28;20414;-57
2022/01/12 10:44:26;;;;;;;6.65;4.68;;;;;;;;;;5026645;28;20021;-55
2022/01/12 10:47:03;;;;;;;9.15;5.25;;;;;;;;;;5027073;28;20048;-56
2022/01/12 10:49:30;;;;;;;7.00;5.20;;;;;;;;;;5029258;28;20034;-59
2022/01/12 10:51:56;;;;;;;7.05;4.72;;;;;;;;;;5026303;28;20025;-58
2022/01/12 10:54:22;;;;;;;8.70;5.40;;;;;;;;;;5029660;28;20116;-56
2022/01/12 10:56:48;;;;;;;6.20;4.68;;;;;;;;;;5031476;28;20462;-58
2022/01/12 10:59:21;;;;;;;6.28;4.55;;;;;;;;;;5032071;28;20040;-57
2022/01/12 11:01:47;;;;;;;9.27;4.97;;;;;;;;;;5029656;28;20103;-57
2022/01/12 11:04:12;;;;;;;8.00;4.60;;;;;;;;;;5030318;28;20030;-54
2022/01/12 11:06:39;;;;;;;6.13;4.22;;;;;;;;;;5033259;28;20029;-55
2022/01/12 11:09:05;;;;;;;6.95;4.90;;;;;;;;;;5029448;28;20421;-55
2022/01/12 11:11:30;;;;;;;5.78;4.28;;;;;;;;;;5030462;28;20478;-57
2022/01/12 11:13:56;;;;;;;4.57;3.58;;;;;;;;;;5030103;28;20029;-57
2022/01/12 11:16:23;;;;;;;6.95;3.75;;;;;;;;;;5031096;28;20039;-56
2022/01/12 11:18:52;;;;;;;6.95;4.03;;;;;;;;;;5031508;28;20873;-57
2022/01/12 11:21:20;;;;;;;4.97;4.05;;;;;;;;;;5014274;28;20033;-55
2022/01/12 11:23:46;;;;;;;9.95;4.82;;;;;;;;;;5031583;28;20037;-59
2022/01/12 11:26:19;;;;;;;7.32;4.38;;;;;;;;;;5029353;28;20022;-59
2022/01/12 11:28:48;;;;;;;8.25;5.40;;;;;;;;;;5033316;28;20120;-58
2022/01/12 11:31:18;;;;;;;8.15;4.88;;;;;;;;;;5027970;28;20036;-56
2022/01/12 11:33:45;;;;;;;7.93;5.10;;;;;;;;;;5029213;28;20021;-58
2022/01/12 11:36:19;;;;;;;7.90;4.90;;;;;;;;;;5030966;28;20039;-57
2022/01/12 11:38:50;;;;;;;8.35;4.95;;;;;;;;;;5032707;28;20035;-57
2022/01/12 11:41:23;;;;;;;12.00;5.85;;;;;;;;;;5029164;28;20116;-58
2022/01/12 11:44:08;;;;;;;9.70;5.20;;;;;;;;;;5029167;28;20048;-57
2022/01/12 11:46:56;;;;;;;7.78;4.93;;;;;;;;;;5029802;28;20038;-56
2022/01/12 11:49:39;;;;;;;8.05;5.15;;;;;;;;;;5030750;28;20398;-56
2022/01/12 11:52:24;;;;;;;8.98;4.72;;;;;;;;;;5031817;28;20466;-58
2022/01/12 11:54:53;;;;;;;7.68;5.18;;;;;;;;;;5026525;28;20037;-60
2022/01/12 11:57:34;;;;;;;8.18;4.72;;;;;;;;;;5026565;28;20025;-53
2022/01/12 12:00:07;;;;;;;6.55;4.60;;;;;;;;;;5025195;28;20346;-56
2022/01/12 12:02:35;;;;;;;7.78;4.20;;;;;;;;;;5025362;28;20480;-57
2022/01/12 12:05:23;;;;;;;6.38;4.30;;;;;;;;;;5022213;28;20029;-58
2022/01/12 12:08:02;;;;;;;5.00;3.95;;;;;;;;;;5026004;28;20179;-59
2022/01/12 12:10:30;;;;;;;5.43;3.88;;;;;;;;;;5024086;28;20449;-58
2022/01/12 12:12:56;;;;;;;7.88;4.18;;;;;;;;;;5026044;28;20025;-59
2022/01/12 12:15:23;;;;;;;6.60;4.30;;;;;;;;;;5024776;28;20033;-58
2022/01/12 12:17:52;;;;;;;8.80;3.92;;;;;;;;;;5024569;28;20037;-58
2022/01/12 12:20:20;;;;;;;5.93;4.00;;;;;;;;;;5025065;28;20033;-59
2022/01/12 12:22:47;;;;;;;6.30;4.00;;;;;;;;;;5023939;28;20577;-60
2022/01/12 12:25:18;;;;;;;8.48;4.55;;;;;;;;;;5024506;28;20063;-57
2022/01/12 12:27:49;;;;;;;6.10;4.15;;;;;;;;;;5022211;28;20530;-58
2022/01/12 12:30:16;;;;;;;6.97;4.25;;;;;;;;;;5024545;28;20029;-56
2022/01/12 12:32:43;;;;;;;6.93;4.78;;;;;;;;;;5009860;28;20445;-58
2022/01/12 12:35:21;;;;;;;6.47;4.28;;;;;;;;;;5024179;28;20048;-57
2022/01/12 12:37:51;;;;;;;5.88;3.70;;;;;;;;;;5023851;28;20035;-58
2022/01/12 12:40:28;;;;;;;5.97;4.45;;;;;;;;;;5023709;28;20040;-56
2022/01/12 12:43:15;;;;;;;6.63;4.40;;;;;;;;;;5025364;28;20033;-59
2022/01/12 12:45:42;;;;;;;6.93;4.72;;;;;;;;;;5024986;28;20025;-59
2022/01/12 12:48:09;;;;;;;6.57;4.75;;;;;;;;;;5025276;28;20374;-55
2022/01/12 12:50:35;;;;;;;7.10;4.15;;;;;;;;;;5023187;28;20032;-58
2022/01/12 12:53:00;;;;;;;7.63;4.30;;;;;;;;;;5024803;28;21387;-60
2022/01/12 12:55:32;;;;;;;7.30;4.47;;;;;;;;;;5027309;28;20036;-60
2022/01/12 12:57:57;;;;;;;6.72;4.00;;;;;;;;;;5027682;28;20025;-57
2022/01/12 13:00:25;;;;;;;6.55;4.32;;;;;;;;;;5027990;28;20048;-55
2022/01/12 13:02:56;;;;;;;7.15;4.70;;;;;;;;;;5027234;28;20390;-60
2022/01/12 13:05:42;;;;;;;6.35;4.15;;;;;;;;;;5027879;28;20045;-58
2022/01/12 13:08:08;;;;;;;4.40;3.65;;;;;;;;;;5026868;28;20067;-58
2022/01/12 13:10:34;;;;;;;7.30;3.78;;;;;;;;;;5028803;28;20021;-57
2022/01/12 13:13:05;;;;;;;5.30;3.72;;;;;;;;;;5029126;28;20044;-56
2022/01/12 13:15:35;;;;;;;4.75;3.67;;;;;;;;;;5026957;28;20034;-59
2022/01/12 13:18:13;;;;;;;7.07;4.05;;;;;;;;;;5027331;28;20095;-59
2022/01/12 13:23:29;;;;;;;7.20;4.38;;;;;;;;;;5027425;28;20405;-54
2022/01/12 13:26:04;;;;;;;5.80;4.10;;;;;;;;;;5027862;28;20028;-56
2022/01/12 13:28:30;;;;;;;5.78;4.07;;;;;;;;;;5030681;28;20100;-58
2022/01/12 13:30:58;;;;;;;5.57;3.90;;;;;;;;;;5027090;28;20051;-58
2022/01/12 13:33:33;;;;;;;5.80;3.38;;;;;;;;;;5028681;28;20083;-54
2022/01/12 13:36:10;;;;;;;3.85;3.40;;;;;;;;;;5027858;28;20106;-57
2022/01/12 13:38:36;;;;;;;5.15;3.33;;;;;;;;;;5028367;28;20025;-60
2022/01/12 13:41:15;;;;;;;7.40;4.28;;;;;;;;;;5026476;28;20173;-60
2022/01/12 13:43:44;;;;;;;4.28;3.33;;;;;;;;;;5028533;28;20033;-57
2022/01/12 13:46:14;;;;;;;4.28;3.47;;;;;;;;;;5029047;28;20052;-57
2022/01/12 13:48:53;;;;;;;5.93;3.50;;;;;;;;;;5027717;28;20079;-57
2022/01/12 13:51:26;;;;;;;5.40;3.67;;;;;;;;;;5026169;28;20030;-57
2022/01/12 13:54:03;;;;;;;8.73;3.60;;;;;;;;;;5027452;28;20682;-58
2022/01/12 13:56:55;;;;;;;4.97;3.42;;;;;;;;;;5030531;28;20060;-55
2022/01/12 13:59:27;;;;;;;12.00;4.07;;;;;;;;;;5024673;28;20130;-59
2022/01/12 14:01:53;;;;;;;6.50;4.18;;;;;;;;;;5026730;28;20037;-58
2022/01/12 14:04:34;;;;;;;6.32;3.95;;;;;;;;;;5029031;28;20088;-54
2022/01/12 14:07:03;;;;;;;5.35;3.55;;;;;;;;;;5028029;28;20025;-59
2022/01/12 14:11:55;;;;;;;5.07;3.75;;;;;;;;;;5029267;28;20594;-58
2022/01/12 14:14:22;;;;;;;6.10;3.78;;;;;;;;;;5027658;28;20552;-58
2022/01/12 14:16:48;;;;;;;5.22;3.60;;;;;;;;;;5027085;28;20044;-57
2022/01/12 14:19:15;;;;;;;4.38;3.40;;;;;;;;;;5030489;28;20470;-59
2022/01/12 14:21:41;;;;;;;7.53;4.28;;;;;;;;;;5028356;28;20037;-58
2022/01/12 14:24:08;;;;;;;4.90;3.45;;;;;;;;;;5027418;28;20025;-53
2022/01/12 14:26:39;;;;;;;4.80;3.55;;;;;;;;;;5025700;28;20103;-57
2022/01/12 14:29:05;;;;;;;8.30;3.67;;;;;;;;;;5027675;28;20510;-55
2022/01/12 14:31:31;;;;;;;7.13;4.30;;;;;;;;;;5027108;28;20033;-58
2022/01/12 14:33:57;;;;;;;7.50;4.07;;;;;;;;;;5027309;28;20029;-55
2022/01/12 14:36:23;;;;;;;5.45;3.80;;;;;;;;;;5028211;28;20112;-57
2022/01/12 14:38:49;;;;;;;6.43;4.20;;;;;;;;;;5011658;28;20999;-57
2022/01/12 14:41:15;;;;;;;5.82;3.53;;;;;;;;;;5027229;28;20021;-56
2022/01/12 14:43:41;;;;;;;7.25;4.18;;;;;;;;;;5033365;28;20029;-58
2022/01/12 14:46:07;;;;;;;6.32;3.75;;;;;;;;;;5030730;28;20723;-57
2022/01/12 14:48:32;;;;;;;5.68;3.80;;;;;;;;;;5032542;28;20033;-57
2022/01/12 14:50:58;;;;;;;7.43;4.22;;;;;;;;;;5032187;28;20062;-56
2022/01/12 14:53:23;;;;;;;7.10;3.92;;;;;;;;;;5029001;28;20524;-54
2022/01/12 14:55:52;;;;;;;7.47;4.38;;;;;;;;;;5029288;28;20053;-58
2022/01/12 14:58:18;;;;;;;6.30;4.00;;;;;;;;;;5029939;28;20033;-55
2022/01/12 15:00:45;;;;;;;6.82;3.63;;;;;;;;;;5028394;28;20465;-54
2022/01/12 15:03:11;;;;;;;5.55;4.20;;;;;;;;;;5030305;28;20030;-53
2022/01/12 15:05:40;;;;;;;6.32;4.03;;;;;;;;;;5030438;28;20074;-57
2022/01/12 15:08:05;;;;;;;6.50;3.78;;;;;;;;;;5030304;28;20104;-57
2022/01/12 15:10:31;;;;;;;5.25;3.80;;;;;;;;;;5030209;28;20469;-58
2022/01/12 15:13:04;;;;;;;6.50;4.60;;;;;;;;;;5027338;28;20560;-57
2022/01/12 15:15:32;;;;;;;5.78;3.70;;;;;;;;;;5028857;28;20040;-59
2022/01/12 15:17:58;;;;;;;6.70;3.85;;;;;;;;;;5031664;28;20044;-55
2022/01/12 15:20:28;;;;;;;4.85;3.47;;;;;;;;;;5029971;28;20493;-59
2022/01/12 15:22:53;;;;;;;5.43;3.60;;;;;;;;;;5029341;28;20107;-60
2022/01/12 15:25:19;;;;;;;4.03;3.22;;;;;;;;;;5030586;28;20072;-59
2022/01/12 15:27:46;;;;;;;5.93;3.80;;;;;;;;;;5029013;28;20048;-52
2022/01/12 15:30:12;;;;;;;4.35;3.08;;;;;;;;;;5031599;28;20037;-58
2022/01/12 15:32:38;;;;;;;5.28;3.88;;;;;;;;;;5029670;28;20036;-59
2022/01/12 15:35:04;;;;;;;6.32;3.65;;;;;;;;;;5030822;28;20037;-58
2022/01/12 15:37:30;;;;;;;6.95;4.30;;;;;;;;;;5028848;28;20033;-57
2022/01/12 15:39:56;;;;;;;5.50;3.92;;;;;;;;;;5031926;28;20039;-57
2022/01/12 15:42:23;;;;;;;6.38;4.63;;;;;;;;;;5027225;28;20186;-58
2022/01/12 15:44:48;;;;;;;7.15;4.40;;;;;;;;;;5031989;28;20706;-59
2022/01/12 15:47:14;;;;;;;5.72;4.30;;;;;;;;;;5029483;28;20033;-58
2022/01/12 15:49:40;;;;;;;5.80;4.38;;;;;;;;;;5028110;28;20118;-55
2022/01/12 15:52:06;;;;;;;6.13;4.20;;;;;;;;;;5028809;28;20420;-58
2022/01/12 15:54:31;;;;;;;6.97;4.20;;;;;;;;;;5035945;28;20017;-57
2022/01/12 15:56:58;;;;;;;6.65;3.85;;;;;;;;;;5024485;28;20029;-59
2022/01/12 15:59:24;;;;;;;8.30;4.43;;;;;;;;;;5040445;28;20059;-57
2022/01/12 16:01:50;;;;;;;7.90;3.85;;;;;;;;;;5033253;28;20240;-55
2022/01/12 16:04:15;;;;;;;7.47;3.22;;;;;;;;;;5031972;28;20107;-56
2022/01/12 16:06:41;;;;;;;7.32;2.80;;;;;;;;;;5038922;28;20029;-59
2022/01/12 16:09:06;;;;;;;7.53;2.63;;;;;;;;;;5014978;28;20718;-55
2022/01/12 16:11:33;;;;;;;5.63;2.30;;;;;;;;;;4945886;28;20058;-59
2022/01/12 16:13:58;;;;;;;4.47;2.50;;;;;;;;;;4897396;28;20040;-56